createdAt,value
2022-12-31T11:57:34.000Z,1271.67
2022-12-31T12:57:37.000Z,8831.67
2022-12-31T13:12:15.000Z,4463.33
2022-12-31T13:26:50.000Z,4666.67
2022-12-31T13:41:27.000Z,5550.83
2022-12-31T13:56:05.000Z,5275.83
2022-12-31T14:10:41.000Z,1701.67
2022-12-31T14:25:15.000Z,735.00
2022-12-31T14:39:49.000Z,419.17
2022-12-31T14:54:25.000Z,169.17
2022-12-31T15:09:02.000Z,204.17
2022-12-31T15:23:40.000Z,87.50
2022-12-31T15:38:17.000Z,22.50
2022-12-31T15:52:55.000Z,4.17
2022-12-31T16:07:34.000Z,0.00
2022-12-31T16:36:46.000Z,0.00
2022-12-31T16:51:20.000Z,0.00
2022-12-31T17:05:52.000Z,0.00
2022-12-31T17:20:30.000Z,0.00
2022-12-31T17:49:44.000Z,0.00
2022-12-31T18:04:23.000Z,0.00
2022-12-31T18:19:00.000Z,0.00
2022-12-31T18:33:39.000Z,0.00
2022-12-31T18:48:18.000Z,0.00
2022-12-31T19:02:57.000Z,0.00
2022-12-31T19:17:36.000Z,0.00
2022-12-31T19:32:15.000Z,0.00
2022-12-31T19:46:53.000Z,0.00
2022-12-31T20:01:31.000Z,0.00
2022-12-31T20:16:13.000Z,0.00
2022-12-31T20:30:45.000Z,0.00
2022-12-31T20:45:15.000Z,0.00
2022-12-31T20:59:54.000Z,0.00
2022-12-31T21:14:32.000Z,0.00
2022-12-31T21:29:11.000Z,0.00
2022-12-31T21:43:50.000Z,0.00
2022-12-31T21:58:26.000Z,0.00
2022-12-31T22:13:04.000Z,0.00
2022-12-31T22:27:34.000Z,0.00
2022-12-31T22:42:13.000Z,0.00
2022-12-31T22:56:51.000Z,0.00
2022-12-31T23:11:23.000Z,0.00
2022-12-31T23:25:53.000Z,0.00
2022-12-31T23:40:31.000Z,0.00
2022-12-31T23:55:05.000Z,0.00
